createdAt,value
2023-01-04T00:00:59.903Z,3.57
2023-01-04T00:03:32.667Z,3.58
2023-01-04T00:06:04.628Z,3.55
2023-01-04T00:08:36.167Z,3.54
2023-01-04T00:11:08.133Z,3.52
2023-01-04T00:13:39.651Z,3.47
2023-01-04T00:16:11.529Z,3.48
2023-01-04T00:18:43.153Z,3.47
2023-01-04T00:21:14.974Z,3.43
2023-01-04T00:23:46.523Z,3.44
2023-01-04T00:26:19.430Z,3.45
2023-01-04T00:28:54.404Z,3.43
2023-01-04T00:31:26.791Z,3.38
2023-01-04T00:33:58.364Z,3.37
2023-01-04T00:36:30.445Z,3.40
2023-01-04T00:39:08.930Z,3.36
2023-01-04T00:44:32.725Z,3.29
2023-01-04T00:47:04.881Z,3.29
2023-01-04T00:49:36.448Z,3.26
2023-01-04T00:52:08.401Z,3.21
2023-01-04T00:54:39.924Z,3.21
2023-01-04T00:57:11.724Z,3.21
2023-01-04T00:59:43.272Z,3.19
2023-01-04T01:02:15.238Z,3.17
2023-01-04T01:04:46.892Z,3.20
2023-01-04T01:07:18.857Z,3.22
2023-01-04T01:09:50.381Z,3.25
2023-01-04T01:12:22.276Z,3.28
2023-01-04T01:14:58.602Z,3.27
2023-01-04T01:17:32.410Z,3.31
2023-01-04T01:20:04.341Z,3.36
2023-01-04T01:22:36.271Z,3.36
2023-01-04T01:25:07.782Z,3.37
2023-01-04T01:27:39.665Z,3.36
2023-01-04T01:30:11.171Z,3.35
2023-01-04T01:32:43.080Z,3.34
2023-01-04T01:35:14.611Z,3.34
2023-01-04T01:37:46.449Z,3.34
2023-01-04T01:40:18.009Z,3.31
2023-01-04T01:42:49.876Z,3.33
2023-01-04T01:45:21.418Z,3.31
2023-01-04T01:47:53.241Z,3.29
2023-01-04T01:50:24.839Z,3.24
2023-01-04T01:52:56.397Z,3.18
2023-01-04T01:55:27.911Z,3.19
2023-01-04T01:57:59.866Z,3.17
2023-01-04T02:00:31.440Z,3.12
2023-01-04T02:03:03.430Z,3.10
2023-01-04T02:05:35.098Z,3.11
2023-01-04T02:08:07.086Z,3.12
2023-01-04T02:10:38.600Z,3.11
2023-01-04T02:13:10.453Z,3.11
2023-01-04T02:15:42.018Z,3.09
2023-01-04T02:18:13.909Z,3.10
2023-01-04T02:20:45.489Z,3.08
2023-01-04T02:23:17.358Z,3.04
2023-01-04T02:25:48.865Z,3.04
2023-01-04T02:28:20.803Z,3.08
2023-01-04T02:30:52.347Z,3.09
2023-01-04T02:33:24.237Z,3.07
2023-01-04T02:35:55.757Z,3.08
2023-01-04T02:38:27.759Z,3.09
2023-01-04T02:40:59.705Z,3.06
2023-01-04T02:43:50.466Z,3.06
2023-01-04T02:46:22.052Z,3.05
2023-01-04T02:49:17.320Z,3.02
2023-01-04T02:51:48.887Z,2.99
2023-01-04T02:54:20.871Z,3.00
2023-01-04T02:56:52.394Z,3.01
2023-01-04T02:59:24.356Z,3.01
2023-01-04T03:02:14.872Z,3.02
2023-01-04T03:05:05.692Z,3.02
2023-01-04T03:07:37.214Z,3.01
2023-01-04T03:10:09.148Z,3.04
2023-01-04T03:12:40.703Z,3.03
2023-01-04T03:15:12.571Z,3.00
2023-01-04T03:17:44.475Z,2.99
2023-01-04T03:20:15.996Z,2.99
2023-01-04T03:23:06.298Z,2.97
2023-01-04T03:25:56.342Z,2.92
2023-01-04T03:28:46.873Z,2.92
2023-01-04T03:31:37.372Z,2.88
2023-01-04T03:34:28.177Z,2.87
2023-01-04T03:36:59.793Z,2.87
2023-01-04T03:39:50.408Z,2.88
2023-01-04T03:42:40.499Z,2.86
2023-01-04T03:45:31.131Z,2.85
2023-01-04T03:48:21.668Z,2.86
2023-01-04T03:50:53.203Z,2.84
2023-01-04T03:53:24.979Z,2.84
2023-01-04T03:55:56.499Z,2.84
2023-01-04T03:58:28.444Z,2.82
2023-01-04T04:01:03.728Z,2.83
2023-01-04T04:03:54.635Z,2.85
2023-01-04T04:06:45.062Z,2.81
2023-01-04T04:09:16.909Z,2.81
2023-01-04T04:11:51.133Z,2.76
2023-01-04T04:14:23.278Z,2.78
2023-01-04T04:16:54.933Z,2.76
2023-01-04T04:19:26.885Z,2.74
2023-01-04T04:21:58.428Z,2.71
2023-01-04T04:24:30.303Z,2.73
2023-01-04T04:27:01.862Z,2.70
2023-01-04T04:29:33.768Z,2.70
2023-01-04T04:32:05.400Z,2.69
2023-01-04T04:34:37.872Z,2.70
2023-01-04T04:37:09.487Z,2.72
2023-01-04T04:39:41.362Z,2.73
2023-01-04T04:42:12.897Z,2.71
2023-01-04T04:44:44.605Z,2.76
2023-01-04T04:47:16.143Z,2.76
2023-01-04T04:49:48.106Z,2.77
2023-01-04T04:52:19.646Z,2.88
2023-01-04T04:54:51.509Z,2.90
2023-01-04T04:57:23.401Z,2.96
2023-01-04T04:59:54.933Z,2.99
2023-01-04T05:02:27.149Z,3.06
2023-01-04T05:04:58.839Z,3.10
2023-01-04T05:07:30.731Z,3.17
2023-01-04T05:10:02.280Z,3.25
2023-01-04T05:12:57.752Z,3.34
2023-01-04T05:15:29.771Z,3.41
2023-01-04T05:18:01.841Z,3.47
2023-01-04T05:20:33.396Z,3.58
2023-01-04T05:23:05.454Z,3.65
2023-01-04T05:25:36.989Z,3.70
2023-01-04T05:28:08.890Z,3.75
2023-01-04T05:30:53.668Z,3.76
2023-01-04T05:33:28.291Z,3.85
2023-01-04T05:35:59.963Z,3.88
2023-01-04T05:38:31.929Z,3.91
2023-01-04T05:41:03.467Z,3.98
2023-01-04T05:43:35.406Z,3.97
2023-01-04T05:46:07.004Z,3.99
2023-01-04T05:48:38.566Z,4.02
2023-01-04T05:51:10.102Z,4.06
2023-01-04T05:53:41.941Z,4.06
2023-01-04T05:56:13.460Z,4.11
2023-01-04T05:58:45.329Z,4.14
2023-01-04T06:01:16.886Z,4.15
2023-01-04T06:03:48.918Z,4.19
2023-01-04T06:06:20.550Z,4.27
2023-01-04T06:08:52.421Z,4.35
2023-01-04T06:11:27.528Z,4.37
2023-01-04T06:13:59.834Z,4.43
2023-01-04T06:16:31.608Z,4.50
2023-01-04T06:19:03.567Z,4.48
2023-01-04T06:21:35.105Z,4.56
2023-01-04T06:24:07.060Z,4.57
2023-01-04T06:26:38.619Z,4.63
2023-01-04T06:29:10.410Z,4.66
2023-01-04T06:31:41.934Z,4.77
2023-01-04T06:34:13.697Z,4.87
2023-01-04T06:36:45.215Z,5.00
2023-01-04T06:39:17.350Z,5.01
2023-01-04T06:41:48.860Z,5.11
2023-01-04T06:44:20.651Z,5.19
2023-01-04T06:46:52.349Z,5.22
2023-01-04T06:49:23.878Z,5.30
2023-01-04T06:51:55.409Z,5.36
2023-01-04T06:54:27.358Z,5.39
2023-01-04T06:56:58.878Z,5.42
2023-01-04T06:59:30.759Z,5.46
2023-01-04T07:02:02.427Z,5.49
2023-01-04T07:04:34.480Z,5.54
2023-01-04T07:07:06.044Z,5.63
2023-01-04T07:09:38.099Z,5.70
2023-01-04T07:12:09.654Z,5.77
2023-01-04T07:14:41.512Z,5.84
2023-01-04T07:17:13.028Z,5.88
2023-01-04T07:19:45.077Z,5.86
2023-01-04T07:22:16.614Z,5.75
2023-01-04T07:24:48.604Z,5.74
2023-01-04T07:27:20.092Z,5.70
2023-01-04T07:29:51.916Z,5.63
2023-01-04T07:32:23.520Z,5.56
2023-01-04T07:34:55.500Z,5.53
2023-01-04T07:37:27.036Z,5.51
2023-01-04T07:39:58.945Z,5.48
2023-01-04T07:42:30.461Z,5.48
2023-01-04T07:45:02.044Z,5.48
2023-01-04T07:47:33.571Z,5.47
2023-01-04T07:50:06.508Z,5.42
2023-01-04T07:52:38.234Z,5.37
2023-01-04T07:55:10.041Z,5.37
2023-01-04T07:57:41.547Z,5.39
2023-01-04T08:00:13.444Z,5.36
2023-01-04T08:02:45.143Z,5.33
2023-01-04T08:05:17.171Z,5.33
2023-01-04T08:07:48.750Z,5.38
2023-01-04T08:10:20.615Z,5.39
2023-01-04T08:12:52.124Z,5.48
2023-01-04T08:15:24.021Z,5.42
2023-01-04T08:17:55.571Z,5.43
2023-01-04T08:20:27.412Z,5.39
2023-01-04T08:22:58.990Z,5.46
2023-01-04T08:25:30.863Z,5.52
2023-01-04T08:28:02.436Z,5.50
2023-01-04T08:30:34.269Z,5.57
2023-01-04T08:33:05.790Z,5.60
2023-01-04T08:35:37.574Z,5.63
2023-01-04T08:38:48.600Z,5.66
2023-01-04T08:41:16.652Z,5.72
2023-01-04T08:43:52.409Z,5.75
2023-01-04T08:46:24.331Z,5.73
2023-01-04T08:48:55.897Z,5.76
2023-01-04T08:51:27.943Z,5.81
2023-01-04T08:53:59.459Z,5.81
2023-01-04T08:56:31.417Z,5.81
2023-01-04T08:59:02.961Z,5.86
2023-01-04T09:01:35.228Z,5.85
2023-01-04T09:04:06.915Z,5.87
2023-01-04T09:06:38.765Z,5.82
2023-01-04T09:09:10.302Z,5.86
2023-01-04T09:11:42.100Z,5.89
2023-01-04T09:14:14.008Z,5.90
2023-01-04T09:16:45.886Z,5.92
2023-01-04T09:19:21.852Z,5.91
2023-01-04T09:21:54.397Z,5.94
2023-01-04T09:24:26.000Z,5.98
2023-01-04T09:26:57.847Z,5.97
2023-01-04T09:29:29.365Z,6.00
2023-01-04T09:32:01.444Z,6.02
2023-01-04T09:34:33.195Z,5.98
2023-01-04T09:37:05.071Z,6.01
2023-01-04T09:39:36.615Z,6.03
2023-01-04T09:42:08.545Z,6.06
2023-01-04T09:45:21.316Z,6.08
2023-01-04T09:47:31.691Z,5.90
2023-01-04T09:50:03.637Z,6.13
2023-01-04T09:52:35.176Z,6.13
2023-01-04T09:55:37.219Z,6.18
2023-01-04T09:57:58.779Z,6.20
2023-01-04T10:00:30.751Z,6.18
2023-01-04T10:03:02.461Z,6.25
2023-01-04T10:05:34.518Z,6.25
2023-01-04T10:08:06.089Z,6.28
2023-01-04T10:10:37.928Z,6.32
2023-01-04T10:13:09.453Z,6.31
2023-01-04T10:15:41.385Z,6.31
2023-01-04T10:20:16.276Z,6.33
2023-01-04T10:23:56.313Z,6.31
2023-01-04T10:26:28.236Z,6.32
2023-01-04T10:28:59.770Z,6.34
2023-01-04T10:31:39.440Z,6.35
2023-01-04T10:34:18.592Z,6.38
2023-01-04T10:36:50.931Z,6.37
2023-01-04T10:39:26.976Z,6.36
2023-01-04T10:42:02.406Z,6.38
2023-01-04T10:44:33.923Z,6.37
2023-01-04T10:47:05.621Z,6.39
2023-01-04T10:49:37.270Z,6.35
2023-01-04T10:52:09.090Z,6.42
2023-01-04T10:54:40.793Z,6.43
2023-01-04T10:57:12.806Z,6.44
2023-01-04T10:59:44.314Z,6.46
2023-01-04T11:02:16.087Z,6.51
2023-01-04T11:04:47.680Z,6.51
2023-01-04T11:07:19.537Z,6.58
2023-01-04T11:09:51.125Z,6.54
2023-01-04T11:12:23.207Z,6.61
2023-01-04T11:14:54.801Z,6.68
2023-01-04T11:17:26.400Z,6.73
2023-01-04T11:19:58.757Z,6.81
2023-01-04T11:22:30.986Z,6.81
2023-01-04T11:27:54.058Z,6.85
2023-01-04T11:30:25.601Z,6.89
2023-01-04T11:32:57.475Z,6.99
2023-01-04T11:35:28.974Z,7.03
2023-01-04T11:38:00.498Z,7.08
2023-01-04T11:40:33.322Z,7.12
2023-01-04T11:43:04.870Z,7.13
2023-01-04T11:45:36.423Z,7.13
2023-01-04T11:48:14.509Z,7.08
2023-01-04T11:50:46.499Z,7.10
2023-01-04T11:53:18.018Z,7.16
2023-01-04T11:55:49.977Z,7.21
2023-01-04T11:58:21.504Z,7.24
2023-01-04T12:00:53.359Z,7.32
2023-01-04T12:03:25.230Z,7.32
2023-01-04T12:05:57.070Z,7.34
2023-01-04T12:08:28.648Z,7.37
2023-01-04T12:11:00.600Z,5.57
2023-01-04T12:13:32.145Z,7.41
2023-01-04T12:16:04.069Z,7.42
2023-01-04T12:18:35.640Z,7.49
2023-01-04T12:21:07.730Z,7.57
2023-01-04T12:23:39.263Z,7.57
2023-01-04T12:26:11.128Z,7.57
2023-01-04T12:28:42.751Z,7.59
2023-01-04T12:31:16.870Z,7.63
2023-01-04T12:33:50.833Z,7.59
2023-01-04T12:36:22.729Z,7.58
2023-01-04T12:38:54.256Z,7.56
2023-01-04T12:41:26.223Z,7.50
2023-01-04T12:43:57.764Z,7.46
2023-01-04T12:46:48.069Z,7.49
2023-01-04T12:49:19.573Z,7.47
2023-01-04T12:52:12.870Z,7.46
2023-01-04T12:54:42.905Z,7.37
2023-01-04T12:57:14.729Z,7.34
2023-01-04T12:59:46.316Z,7.28
2023-01-04T13:02:18.314Z,7.26
2023-01-04T13:04:50.083Z,7.28
2023-01-04T13:07:22.095Z,7.26
2023-01-04T13:09:53.672Z,7.25
2023-01-04T13:12:25.457Z,7.29
2023-01-04T13:14:57.023Z,7.34
2023-01-04T13:17:28.930Z,7.37
2023-01-04T13:20:01.753Z,7.34
2023-01-04T13:22:34.434Z,7.42
2023-01-04T13:25:07.266Z,7.44
2023-01-04T13:27:38.803Z,7.40
2023-01-04T13:30:10.347Z,7.42
2023-01-04T13:33:23.685Z,7.42
2023-01-04T13:35:33.954Z,5.88
2023-01-04T13:38:05.882Z,7.44
2023-01-04T13:40:37.844Z,7.47
2023-01-04T13:43:09.652Z,7.49
2023-01-04T13:45:41.225Z,7.53
2023-01-04T13:48:13.058Z,7.53
2023-01-04T13:50:47.298Z,7.48
2023-01-04T13:53:19.488Z,7.50
2023-01-04T13:55:51.348Z,7.52
2023-01-04T13:58:23.188Z,7.57
2023-01-04T14:00:54.786Z,7.54
2023-01-04T14:03:26.803Z,7.56
2023-01-04T14:06:02.906Z,7.56
2023-01-04T14:08:36.003Z,7.59
2023-01-04T14:11:07.530Z,7.53
2023-01-04T14:13:39.229Z,7.58
2023-01-04T14:16:10.843Z,7.62
2023-01-04T14:18:42.806Z,7.65
2023-01-04T14:21:14.323Z,6.63
2023-01-04T14:23:46.351Z,7.73
2023-01-04T14:26:17.858Z,7.74
2023-01-04T14:28:50.354Z,7.77
2023-01-04T14:31:22.052Z,7.71
2023-01-04T14:33:53.968Z,7.72
2023-01-04T14:36:26.940Z,7.78
2023-01-04T14:38:58.874Z,7.79
2023-01-04T14:41:30.463Z,7.83
2023-01-04T14:44:02.943Z,7.84
2023-01-04T14:46:34.504Z,7.92
2023-01-04T14:49:06.444Z,7.90
2023-01-04T14:51:38.373Z,7.90
2023-01-04T14:54:10.810Z,7.87
2023-01-04T14:56:42.423Z,7.88
2023-01-04T14:59:14.179Z,7.92
2023-01-04T15:01:45.847Z,7.91
2023-01-04T15:04:17.664Z,7.94
2023-01-04T15:06:49.328Z,7.98
2023-01-04T15:09:21.199Z,7.98
2023-01-04T15:11:52.744Z,8.00
2023-01-04T15:14:24.527Z,8.07
2023-01-04T15:16:56.424Z,8.06
2023-01-04T15:19:30.232Z,8.08
2023-01-04T15:22:06.164Z,8.10
2023-01-04T15:24:37.763Z,8.18
2023-01-04T15:27:09.582Z,8.19
2023-01-04T15:29:41.097Z,8.21
2023-01-04T15:32:13.020Z,8.23
2023-01-04T15:34:47.024Z,8.26
2023-01-04T15:37:24.004Z,8.30
2023-01-04T15:40:01.829Z,8.30
2023-01-04T15:42:53.723Z,8.34
2023-01-04T15:45:25.268Z,8.38
2023-01-04T15:48:03.568Z,8.39
2023-01-04T15:50:35.112Z,8.43
2023-01-04T15:53:06.835Z,8.42
2023-01-04T15:55:38.383Z,8.42
2023-01-04T15:58:10.450Z,8.44
2023-01-04T16:00:41.960Z,8.48
2023-01-04T16:03:13.767Z,8.47
2023-01-04T16:05:45.277Z,8.50
2023-01-04T16:08:17.166Z,8.53
2023-01-04T16:10:48.729Z,8.54
2023-01-04T16:13:20.672Z,8.56
2023-01-04T16:15:52.238Z,8.57
2023-01-04T16:18:27.523Z,8.59
2023-01-04T16:21:01.937Z,8.59
2023-01-04T16:23:33.848Z,8.61
2023-01-04T16:26:05.418Z,8.51
2023-01-04T16:28:36.953Z,8.56
2023-01-04T16:31:08.530Z,8.58
2023-01-04T16:33:40.601Z,8.61
2023-01-04T16:36:12.125Z,8.73
2023-01-04T16:38:43.681Z,8.77
2023-01-04T16:41:15.274Z,8.84
2023-01-04T16:43:47.155Z,8.86
2023-01-04T16:46:19.255Z,8.95
2023-01-04T16:48:51.178Z,8.92
2023-01-04T16:51:22.740Z,8.98
2023-01-04T16:53:54.538Z,9.01
2023-01-04T16:56:26.120Z,9.05
2023-01-04T16:58:57.983Z,9.11
2023-01-04T17:01:29.692Z,9.12
2023-01-04T17:04:01.431Z,9.18
2023-01-04T17:06:32.984Z,9.22
2023-01-04T17:09:05.185Z,9.21
2023-01-04T17:12:36.222Z,9.26
2023-01-04T17:14:28.618Z,9.33
2023-01-04T17:17:02.996Z,9.39
2023-01-04T17:19:34.841Z,9.39
2023-01-04T17:22:06.497Z,9.34
2023-01-04T17:24:38.357Z,9.34
2023-01-04T17:27:10.789Z,9.26
2023-01-04T17:29:42.789Z,9.22
2023-01-04T17:32:14.387Z,9.21
2023-01-04T17:34:46.321Z,9.22
2023-01-04T17:37:17.830Z,9.27
2023-01-04T17:39:50.358Z,9.27
2023-01-04T17:42:23.011Z,9.33
2023-01-04T17:44:55.118Z,9.33
2023-01-04T17:47:26.659Z,9.31
2023-01-04T17:49:58.393Z,9.29
2023-01-04T17:52:31.478Z,9.32
2023-01-04T17:55:03.702Z,9.33
2023-01-04T17:57:35.455Z,9.33
2023-01-04T18:00:08.013Z,9.35
2023-01-04T18:02:39.585Z,9.42
2023-01-04T18:05:12.216Z,9.42
2023-01-04T18:07:43.801Z,9.47
2023-01-04T18:10:33.127Z,9.48
2023-01-04T18:13:07.599Z,9.45
2023-01-04T18:15:44.101Z,9.47
2023-01-04T18:18:27.274Z,9.45
2023-01-04T18:20:59.836Z,9.46
2023-01-04T18:23:31.824Z,9.43
2023-01-04T18:26:03.379Z,9.49
2023-01-04T18:28:35.366Z,9.56
2023-01-04T18:31:10.565Z,9.57
2023-01-04T18:33:45.369Z,9.59
2023-01-04T18:36:16.960Z,9.58
2023-01-04T18:38:48.716Z,9.61
2023-01-04T18:41:20.251Z,9.70
2023-01-04T18:44:05.671Z,9.74
2023-01-04T18:46:45.580Z,9.77
2023-01-04T18:49:17.499Z,9.74
2023-01-04T18:51:49.040Z,9.75
2023-01-04T18:54:22.185Z,9.73
2023-01-04T18:57:00.330Z,9.75
2023-01-04T18:59:32.136Z,9.75
2023-01-04T19:02:04.290Z,9.71
2023-01-04T19:04:36.153Z,9.70
2023-01-04T19:07:07.746Z,9.66
2023-01-04T19:09:40.174Z,9.67
2023-01-04T19:12:11.759Z,9.66
2023-01-04T19:14:43.645Z,9.67
2023-01-04T19:17:15.175Z,9.66
2023-01-04T19:19:46.744Z,9.68
2023-01-04T19:22:18.300Z,9.70
2023-01-04T19:24:49.854Z,9.68
2023-01-04T19:27:21.443Z,9.70
2023-01-04T19:29:53.569Z,9.71
2023-01-04T19:32:29.962Z,9.74
2023-01-04T19:35:05.003Z,9.74
2023-01-04T19:37:36.538Z,9.72
2023-01-04T19:40:08.411Z,9.76
2023-01-04T19:42:41.509Z,9.74
2023-01-04T19:45:13.189Z,9.82
2023-01-04T19:47:45.434Z,9.82
2023-01-04T19:50:17.385Z,9.79
2023-01-04T19:52:48.955Z,9.83
2023-01-04T19:55:20.805Z,9.84
2023-01-04T19:57:52.350Z,9.82
2023-01-04T20:00:23.904Z,9.85
2023-01-04T20:02:55.547Z,9.86
2023-01-04T20:05:27.424Z,9.89
2023-01-04T20:07:58.958Z,9.92
2023-01-04T20:10:30.761Z,9.93
2023-01-04T20:13:02.283Z,9.93
2023-01-04T20:15:34.161Z,9.95
2023-01-04T20:18:10.200Z,9.94
2023-01-04T20:20:45.082Z,9.95
2023-01-04T20:23:16.689Z,9.98
2023-01-04T20:25:48.238Z,9.92
2023-01-04T20:28:19.964Z,9.94
2023-01-04T20:30:51.604Z,9.99
2023-01-04T20:33:23.115Z,9.99
2023-01-04T20:35:54.718Z,9.98
2023-01-04T20:38:26.288Z,10.01
2023-01-04T20:40:57.887Z,9.99
2023-01-04T20:43:37.515Z,10.06
2023-01-04T20:46:09.111Z,10.00
2023-01-04T20:48:41.173Z,10.02
2023-01-04T20:51:12.786Z,9.99
2023-01-04T20:53:44.647Z,10.05
2023-01-04T20:56:16.173Z,10.05
2023-01-04T20:58:48.276Z,10.07
2023-01-04T21:01:19.954Z,10.11
2023-01-04T21:03:51.937Z,10.22
2023-01-04T21:06:24.951Z,10.17
2023-01-04T21:08:57.068Z,10.18
2023-01-04T21:11:28.701Z,10.17
2023-01-04T21:14:02.127Z,10.16
2023-01-04T21:16:33.748Z,10.16
2023-01-04T21:19:05.614Z,10.16
2023-01-04T21:21:37.259Z,10.12
2023-01-04T21:24:09.154Z,10.07
2023-01-04T21:26:40.750Z,10.06
2023-01-04T21:29:12.589Z,9.96
2023-01-04T21:31:44.154Z,9.97
2023-01-04T21:34:20.989Z,9.95
2023-01-04T21:36:54.400Z,9.95
2023-01-04T21:39:26.214Z,9.98
2023-01-04T21:41:57.749Z,10.03
2023-01-04T21:44:30.965Z,10.11
2023-01-04T21:47:02.537Z,9.89
2023-01-04T21:49:34.488Z,9.86
2023-01-04T21:52:06.031Z,9.85
2023-01-04T21:54:37.980Z,9.57
2023-01-04T21:57:09.545Z,9.51
2023-01-04T21:59:41.577Z,9.46
2023-01-04T22:02:13.150Z,9.44
2023-01-04T22:04:44.717Z,9.52
2023-01-04T22:07:16.249Z,9.50
2023-01-04T22:09:51.143Z,9.64
2023-01-04T22:12:27.046Z,9.63
2023-01-04T22:14:59.143Z,9.64
2023-01-04T22:17:30.658Z,9.63
2023-01-04T22:20:02.566Z,9.58
2023-01-04T22:22:34.104Z,9.50
2023-01-04T22:25:05.971Z,9.46
2023-01-04T22:27:37.520Z,9.44
2023-01-04T22:30:09.363Z,9.36
2023-01-04T22:32:40.901Z,9.39
2023-01-04T22:35:12.462Z,9.38
2023-01-04T22:37:44.011Z,9.40
2023-01-04T22:40:17.385Z,9.42
2023-01-04T22:42:48.933Z,9.45
2023-01-04T22:45:20.823Z,9.49
2023-01-04T22:47:52.346Z,9.51
2023-01-04T22:50:24.340Z,9.52
2023-01-04T22:52:55.896Z,9.49
2023-01-04T22:55:45.728Z,9.49
2023-01-04T22:58:19.385Z,9.57
2023-01-04T23:00:51.383Z,9.58
2023-01-04T23:03:23.077Z,9.57
2023-01-04T23:05:55.042Z,9.56
2023-01-04T23:08:26.539Z,9.58
2023-01-04T23:10:58.397Z,9.59
2023-01-04T23:13:29.948Z,9.50
2023-01-04T23:16:02.113Z,9.44
2023-01-04T23:18:33.773Z,9.40
2023-01-04T23:21:05.959Z,9.45
2023-01-04T23:23:37.481Z,9.38
2023-01-04T23:26:09.526Z,9.37
2023-01-04T23:28:41.076Z,9.34
2023-01-04T23:31:12.984Z,9.31
2023-01-04T23:33:44.612Z,9.26
2023-01-04T23:36:19.145Z,9.24
2023-01-04T23:38:50.787Z,9.20
2023-01-04T23:41:42.700Z,9.17
2023-01-04T23:44:14.250Z,9.17
2023-01-04T23:46:45.818Z,9.15
2023-01-04T23:49:17.356Z,9.19
2023-01-04T23:51:48.949Z,9.15
2023-01-04T23:54:20.529Z,9.18
2023-01-04T23:56:52.481Z,9.17
2023-01-04T23:59:24.193Z,9.21
